Terminal Aerodrome Forecast
Issued by NWS Newport/Morehead City, NC

Home | Current Version | Previous Version | Text Only | Print | Product List | Glossary On
Versions: 1 2 3 4 5 6 7 8 9 10 11 12 13 14
000
FTUS42 KMHX 261129
TAFEWN
TAF
KEWN 261129Z 2612/2712 17004KT P6SM SCT030
     FM261500 19010G15KT P6SM SCT040
     FM270200 17004KT P6SM SCT040=

USA.gov is the U.S. government's official web portal to all federal, state and local government web resources and services.